createdAt,value
2023-04-27T00:02:25.761Z,7.04
2023-04-27T00:04:53.477Z,7.10
2023-04-27T00:07:21.524Z,7.02
2023-04-27T00:09:48.774Z,7.08
2023-04-27T00:12:16.072Z,7.06
2023-04-27T00:14:43.280Z,6.89
2023-04-27T00:17:10.968Z,7.05
2023-04-27T00:19:39.643Z,7.09
2023-04-27T00:22:06.922Z,7.05
2023-04-27T00:24:34.518Z,7.01
2023-04-27T00:27:01.765Z,7.00
2023-04-27T00:29:28.942Z,6.92
2023-04-27T00:31:56.153Z,6.94
2023-04-27T00:34:23.349Z,6.94
2023-04-27T00:36:50.781Z,7.01
2023-04-27T00:39:17.974Z,6.94
2023-04-27T00:41:45.708Z,6.80
2023-04-27T00:44:12.882Z,6.88
2023-04-27T00:46:40.242Z,6.94
2023-04-27T00:49:07.469Z,6.81
2023-04-27T00:51:34.715Z,6.83
2023-04-27T00:54:02.107Z,6.87
2023-04-27T00:56:29.354Z,6.81
2023-04-27T00:58:56.579Z,6.77
2023-04-27T01:01:23.941Z,6.72
2023-04-27T01:03:51.702Z,6.85
2023-04-27T01:06:19.023Z,6.81
2023-04-27T01:08:46.956Z,6.71
2023-04-27T01:11:14.380Z,6.79
2023-04-27T01:13:41.773Z,6.70
2023-04-27T01:16:08.980Z,6.85
2023-04-27T01:18:36.175Z,6.73
2023-04-27T01:21:03.545Z,6.78
2023-04-27T01:23:31.070Z,6.70
2023-04-27T01:25:58.316Z,6.67
2023-04-27T01:28:25.482Z,6.75
2023-04-27T01:30:52.875Z,6.61
2023-04-27T01:33:20.745Z,6.70
2023-04-27T01:35:48.426Z,6.67
2023-04-27T01:38:15.705Z,6.62
2023-04-27T01:40:42.867Z,6.71
2023-04-27T01:43:10.029Z,6.64
2023-04-27T01:45:37.277Z,6.70
2023-04-27T01:48:04.747Z,6.64
2023-04-27T01:50:32.008Z,6.54
2023-04-27T01:52:59.191Z,6.60
2023-04-27T01:55:26.376Z,6.55
2023-04-27T01:57:53.624Z,6.52
2023-04-27T02:00:21.530Z,6.51
2023-04-27T02:02:51.212Z,6.53
2023-04-27T02:05:19.643Z,6.46
2023-04-27T02:07:46.804Z,6.51
2023-04-27T02:10:13.936Z,6.46
2023-04-27T02:12:41.238Z,6.51
2023-04-27T02:15:09.221Z,6.45
2023-04-27T02:17:36.498Z,6.38
2023-04-27T02:20:06.706Z,6.38
2023-04-27T02:22:34.040Z,6.46
2023-04-27T02:25:01.304Z,6.34
2023-04-27T02:27:28.811Z,5.99
2023-04-27T02:29:56.465Z,5.94
2023-04-27T02:32:24.027Z,5.99
2023-04-27T02:34:51.453Z,6.08
2023-04-27T02:37:18.619Z,6.04
2023-04-27T02:39:46.565Z,5.91
2023-04-27T02:42:13.841Z,5.93
2023-04-27T02:44:41.510Z,5.89
2023-04-27T02:47:09.200Z,5.50
2023-04-27T02:49:38.066Z,5.68
2023-04-27T02:52:06.313Z,5.63
2023-04-27T02:54:34.062Z,5.74
2023-04-27T02:57:02.055Z,5.66
2023-04-27T02:59:29.252Z,5.82
2023-04-27T03:01:56.493Z,5.86
2023-04-27T03:04:23.678Z,5.91
2023-04-27T03:06:50.940Z,5.84
2023-04-27T03:09:18.100Z,5.65
2023-04-27T03:11:45.270Z,5.72
2023-04-27T03:14:13.356Z,5.45
2023-04-27T03:16:40.780Z,5.51
2023-04-27T03:19:08.462Z,5.57
2023-04-27T03:21:36.087Z,5.58
2023-04-27T03:24:03.696Z,5.57
2023-04-27T03:26:30.913Z,5.52
2023-04-27T03:28:58.133Z,5.44
2023-04-27T03:31:25.405Z,5.34
2023-04-27T03:33:52.632Z,5.39
2023-04-27T03:36:19.849Z,5.31
2023-04-27T03:38:47.122Z,5.10
2023-04-27T03:41:14.358Z,5.11
2023-04-27T03:43:42.029Z,5.19
2023-04-27T03:46:09.336Z,5.21
2023-04-27T03:48:36.598Z,5.15
2023-04-27T03:51:03.811Z,5.21
2023-04-27T03:53:31.596Z,5.19
2023-04-27T03:55:59.196Z,5.05
2023-04-27T03:58:26.336Z,5.22
2023-04-27T04:00:54.793Z,5.00
2023-04-27T04:03:22.213Z,5.21
2023-04-27T04:05:49.770Z,5.14
2023-04-27T04:08:16.939Z,5.05
2023-04-27T04:10:44.219Z,4.99
2023-04-27T04:13:11.408Z,4.99
2023-04-27T04:15:38.594Z,4.85
2023-04-27T04:18:05.993Z,4.98
2023-04-27T04:20:36.041Z,4.86
2023-04-27T04:23:03.196Z,4.83
2023-04-27T04:25:32.035Z,4.79
2023-04-27T04:27:59.325Z,4.97
2023-04-27T04:30:27.409Z,4.93
2023-04-27T04:32:55.254Z,4.94
2023-04-27T04:35:22.530Z,4.92
2023-04-27T04:37:49.912Z,4.85
2023-04-27T04:40:17.102Z,4.96
2023-04-27T04:42:44.253Z,4.90
2023-04-27T04:45:11.513Z,4.85
2023-04-27T04:47:39.614Z,4.91
2023-04-27T04:50:09.876Z,4.98
2023-04-27T04:52:39.990Z,4.96
2023-04-27T04:55:07.447Z,5.07
2023-04-27T04:57:34.602Z,5.11
2023-04-27T05:00:01.933Z,5.04
2023-04-27T05:02:29.499Z,5.19
2023-04-27T05:04:57.559Z,5.22
2023-04-27T05:07:25.215Z,5.22
2023-04-27T05:09:52.754Z,5.24
2023-04-27T05:12:19.975Z,5.18
2023-04-27T05:14:47.685Z,5.28
2023-04-27T05:17:14.957Z,5.31
2023-04-27T05:19:42.101Z,5.00
2023-04-27T05:22:09.259Z,5.35
2023-04-27T05:24:36.562Z,5.33
2023-04-27T05:27:03.853Z,5.35
2023-04-27T05:29:31.070Z,5.39
2023-04-27T05:31:58.464Z,5.41
2023-04-27T05:34:25.689Z,5.35
2023-04-27T05:36:52.859Z,5.73
2023-04-27T05:39:20.004Z,5.95
2023-04-27T05:41:47.148Z,6.22
2023-04-27T05:44:14.542Z,6.67
2023-04-27T05:46:41.675Z,6.56
2023-04-27T05:49:08.822Z,7.24
2023-04-27T05:51:35.964Z,7.85
2023-04-27T05:54:03.278Z,7.82
2023-04-27T05:56:30.542Z,8.68
2023-04-27T05:58:57.697Z,8.32
2023-04-27T06:01:24.858Z,8.15
2023-04-27T06:03:52.151Z,8.48
2023-04-27T06:06:19.365Z,9.30
2023-04-27T06:08:46.662Z,8.51
2023-04-27T06:11:13.814Z,9.05
2023-04-27T06:13:40.976Z,9.44
2023-04-27T06:16:08.260Z,8.38
2023-04-27T06:18:35.443Z,8.26
2023-04-27T06:21:02.682Z,8.42
2023-04-27T06:23:29.906Z,8.77
2023-04-27T06:25:58.649Z,8.37
2023-04-27T06:28:26.186Z,8.90
2023-04-27T06:30:53.815Z,8.56
2023-04-27T06:33:21.198Z,8.71
2023-04-27T06:35:48.390Z,8.25
2023-04-27T06:38:15.665Z,8.86
2023-04-27T06:40:43.013Z,9.34
2023-04-27T06:43:10.156Z,9.02
2023-04-27T06:45:37.266Z,9.45
2023-04-27T06:48:04.813Z,9.49
2023-04-27T06:50:32.045Z,8.92
2023-04-27T06:52:59.199Z,9.17
2023-04-27T06:55:26.341Z,9.86
2023-04-27T06:57:53.502Z,10.29
2023-04-27T07:00:21.372Z,11.16
2023-04-27T07:02:48.663Z,10.17
2023-04-27T07:05:16.365Z,9.63
2023-04-27T07:07:43.584Z,9.75
2023-04-27T07:10:11.171Z,10.55
2023-04-27T07:12:39.436Z,10.63
2023-04-27T07:15:07.712Z,10.96
2023-04-27T07:17:35.085Z,10.89
2023-04-27T07:20:04.388Z,11.72
2023-04-27T07:22:32.802Z,11.46
2023-04-27T07:25:00.020Z,10.31
2023-04-27T07:27:27.444Z,10.77
2023-04-27T07:29:54.783Z,10.87
2023-04-27T07:32:22.713Z,10.33
2023-04-27T07:34:53.945Z,8.51
2023-04-27T07:37:22.859Z,9.69
2023-04-27T07:39:54.326Z,9.43
2023-04-27T07:42:24.981Z,10.31
2023-04-27T07:44:52.445Z,10.06
2023-04-27T07:47:19.842Z,9.85
2023-04-27T07:49:47.122Z,10.20
2023-04-27T07:52:14.632Z,12.20
2023-04-27T07:54:41.808Z,12.13
2023-04-27T07:57:12.087Z,14.16
2023-04-27T07:59:39.968Z,12.53
2023-04-27T08:02:19.161Z,10.99
2023-04-27T08:04:48.860Z,10.65
2023-04-27T08:07:17.645Z,12.97
2023-04-27T08:09:45.075Z,12.05
2023-04-27T08:12:12.297Z,11.18
2023-04-27T08:14:39.459Z,11.03
2023-04-27T08:17:06.948Z,10.34
2023-04-27T08:19:34.379Z,10.52
2023-04-27T08:22:01.531Z,10.62
2023-04-27T08:24:28.709Z,10.67
2023-04-27T08:26:55.923Z,12.32
2023-04-27T08:29:27.805Z,14.27
2023-04-27T08:32:01.906Z,15.11
2023-04-27T08:34:30.374Z,15.46
2023-04-27T08:36:57.868Z,15.65
2023-04-27T08:39:25.160Z,14.55
2023-04-27T08:41:52.429Z,12.87
2023-04-27T08:44:19.593Z,12.62
2023-04-27T08:46:46.968Z,12.47
2023-04-27T08:49:16.547Z,11.52
2023-04-27T08:51:44.556Z,11.28
2023-04-27T08:54:11.754Z,10.60
2023-04-27T08:56:39.434Z,13.23
2023-04-27T08:59:15.805Z,14.79
2023-04-27T09:01:48.844Z,15.17
2023-04-27T09:04:17.880Z,15.94
2023-04-27T09:06:45.800Z,16.57
2023-04-27T09:09:23.645Z,14.56
2023-04-27T09:11:51.362Z,13.87
2023-04-27T09:14:24.869Z,12.37
2023-04-27T09:16:58.002Z,11.94
2023-04-27T09:19:30.473Z,11.57
2023-04-27T09:22:08.193Z,11.67
2023-04-27T09:24:35.813Z,12.07
2023-04-27T09:27:05.019Z,11.93
2023-04-27T09:29:37.451Z,12.89
2023-04-27T09:32:17.239Z,14.63
2023-04-27T09:34:44.924Z,15.28
2023-04-27T09:37:12.713Z,15.70
2023-04-27T09:39:41.447Z,15.19
2023-04-27T09:42:09.157Z,13.86
2023-04-27T09:44:36.360Z,13.14
2023-04-27T09:47:04.817Z,13.44
2023-04-27T09:49:34.562Z,14.56
2023-04-27T09:52:01.760Z,14.64
2023-04-27T09:54:34.070Z,15.07
2023-04-27T09:57:46.684Z,15.38
2023-04-27T10:00:29.146Z,15.69
2023-04-27T10:03:20.964Z,16.13
2023-04-27T10:06:51.472Z,15.17
2023-04-27T10:09:23.683Z,15.24
2023-04-27T10:11:55.108Z,14.17
2023-04-27T10:14:24.535Z,13.88
2023-04-27T10:16:59.030Z,14.29
2023-04-27T10:19:26.323Z,13.83
2023-04-27T10:22:00.520Z,13.74
2023-04-27T10:24:42.975Z,13.04
2023-04-27T10:27:13.423Z,13.41
2023-04-27T10:29:43.699Z,14.04
2023-04-27T10:32:24.601Z,14.56
2023-04-27T10:35:04.014Z,14.14
2023-04-27T10:37:42.822Z,13.85
2023-04-27T10:40:17.391Z,13.60
2023-04-27T10:42:48.141Z,13.25
2023-04-27T10:45:27.907Z,13.05
2023-04-27T10:48:01.502Z,12.85
2023-04-27T10:50:29.310Z,13.14
2023-04-27T10:53:07.821Z,13.12
2023-04-27T10:55:36.186Z,12.49
2023-04-27T10:58:04.420Z,12.56
2023-04-27T11:00:43.828Z,12.50
2023-04-27T11:03:19.400Z,12.40
2023-04-27T11:05:49.425Z,12.37
2023-04-27T11:08:19.380Z,12.02
2023-04-27T11:10:50.390Z,12.31
2023-04-27T11:13:23.548Z,12.57
2023-04-27T11:15:54.767Z,12.57
2023-04-27T11:18:31.517Z,12.86
2023-04-27T11:21:13.967Z,13.62
2023-04-27T11:23:42.648Z,14.12
2023-04-27T11:26:17.739Z,14.67
2023-04-27T11:28:57.268Z,14.67
2023-04-27T11:31:25.554Z,14.07
2023-04-27T11:33:56.053Z,13.46
2023-04-27T11:36:24.401Z,13.71
2023-04-27T11:38:58.806Z,13.37
2023-04-27T11:41:37.069Z,13.48
2023-04-27T11:44:07.601Z,13.19
2023-04-27T11:46:36.818Z,12.85
2023-04-27T11:49:05.838Z,12.48
2023-04-27T11:51:33.411Z,11.93
2023-04-27T11:54:07.866Z,12.01
2023-04-27T11:56:41.587Z,12.59
2023-04-27T11:59:20.949Z,12.11
2023-04-27T12:01:48.410Z,12.07
2023-04-27T12:04:16.954Z,12.18
2023-04-27T12:06:44.406Z,12.12
2023-04-27T12:09:11.553Z,12.33
2023-04-27T12:11:38.896Z,12.60
2023-04-27T12:14:07.194Z,12.86
2023-04-27T12:16:34.385Z,12.81
2023-04-27T12:19:01.914Z,12.75
2023-04-27T12:21:29.055Z,12.86
2023-04-27T12:23:56.484Z,13.12
2023-04-27T12:26:23.650Z,13.52
2023-04-27T12:28:50.813Z,13.94
2023-04-27T12:31:23.611Z,12.98
2023-04-27T12:33:54.021Z,13.68
2023-04-27T12:36:21.238Z,13.11
2023-04-27T12:38:48.738Z,13.96
2023-04-27T12:41:16.298Z,14.08
2023-04-27T12:43:43.575Z,14.31
2023-04-27T12:46:11.468Z,14.90
2023-04-27T12:48:38.751Z,14.69
2023-04-27T12:51:06.811Z,14.82
2023-04-27T12:53:33.978Z,14.69
2023-04-27T12:56:02.390Z,14.92
2023-04-27T12:58:29.559Z,14.81
2023-04-27T13:01:00.801Z,14.85
2023-04-27T13:03:28.223Z,14.64
2023-04-27T13:05:55.469Z,14.67
2023-04-27T13:08:22.644Z,14.87
2023-04-27T13:10:49.816Z,14.64
2023-04-27T13:13:17.056Z,14.73
2023-04-27T13:15:44.258Z,14.99
2023-04-27T13:18:11.513Z,15.08
2023-04-27T13:20:38.784Z,15.03
2023-04-27T13:23:06.625Z,14.84
2023-04-27T13:25:34.330Z,14.23
2023-04-27T13:28:01.504Z,14.83
2023-04-27T13:30:30.003Z,15.08
2023-04-27T13:33:07.172Z,14.61
2023-04-27T13:35:38.399Z,15.13
2023-04-27T13:38:05.556Z,15.06
2023-04-27T13:40:32.720Z,14.09
2023-04-27T13:43:00.283Z,13.71
2023-04-27T13:45:27.834Z,14.38
2023-04-27T13:47:55.011Z,14.71
2023-04-27T13:50:22.339Z,14.33
2023-04-27T13:52:49.844Z,14.01
2023-04-27T13:55:16.995Z,13.83
2023-04-27T13:57:44.137Z,14.14
2023-04-27T14:00:12.735Z,14.42
2023-04-27T14:02:40.228Z,14.37
2023-04-27T14:05:07.979Z,14.47
2023-04-27T14:07:35.668Z,14.69
2023-04-27T14:10:04.158Z,14.53
2023-04-27T14:12:32.367Z,14.48
2023-04-27T14:14:59.791Z,14.61
2023-04-27T14:17:27.061Z,14.48
2023-04-27T14:19:54.223Z,14.42
2023-04-27T14:22:21.436Z,14.45
2023-04-27T14:24:48.566Z,14.54
2023-04-27T14:27:16.955Z,14.82
2023-04-27T14:29:44.114Z,14.69
2023-04-27T14:32:11.366Z,14.63
2023-04-27T14:34:38.577Z,14.30
2023-04-27T14:37:05.771Z,14.78
2023-04-27T14:39:32.968Z,14.61
2023-04-27T14:42:00.146Z,14.34
2023-04-27T14:44:27.396Z,14.46
2023-04-27T14:46:54.607Z,14.00
2023-04-27T14:49:21.935Z,13.58
2023-04-27T14:51:49.076Z,13.74
2023-04-27T14:54:16.364Z,13.56
2023-04-27T14:56:43.481Z,13.27
2023-04-27T14:59:10.777Z,13.43
2023-04-27T15:01:38.350Z,13.25
2023-04-27T15:04:06.325Z,13.38
2023-04-27T15:06:33.698Z,13.11
2023-04-27T15:09:01.062Z,13.39
2023-04-27T15:11:28.240Z,13.32
2023-04-27T15:13:55.688Z,13.30
2023-04-27T15:16:22.951Z,13.23
2023-04-27T15:18:50.095Z,13.02
2023-04-27T15:21:17.217Z,13.16
2023-04-27T15:23:44.362Z,13.23
2023-04-27T15:26:11.501Z,13.08
2023-04-27T15:28:38.712Z,13.15
2023-04-27T15:31:06.247Z,13.08
2023-04-27T15:33:33.448Z,13.20
2023-04-27T15:36:00.650Z,13.11
2023-04-27T15:38:27.888Z,13.15
2023-04-27T15:40:55.062Z,13.35
2023-04-27T15:43:22.263Z,13.10
2023-04-27T15:45:49.897Z,12.83
2023-04-27T15:48:17.047Z,12.72
2023-04-27T15:50:46.509Z,12.64
2023-04-27T15:53:13.671Z,12.73
2023-04-27T15:55:40.847Z,12.78
2023-04-27T15:58:07.996Z,12.74
2023-04-27T16:00:35.249Z,13.03
2023-04-27T16:03:02.541Z,12.82
2023-04-27T16:05:30.137Z,13.02
2023-04-27T16:07:57.293Z,13.03
2023-04-27T16:10:24.428Z,13.17
2023-04-27T16:12:51.645Z,12.85
2023-04-27T16:15:18.844Z,12.87
2023-04-27T16:17:46.046Z,12.95
2023-04-27T16:20:13.492Z,12.69
2023-04-27T16:22:40.614Z,12.75
2023-04-27T16:25:10.777Z,12.99
2023-04-27T16:27:39.121Z,12.68
2023-04-27T16:30:07.467Z,12.79
2023-04-27T16:32:35.685Z,12.92
2023-04-27T16:35:03.495Z,13.32
2023-04-27T16:37:30.822Z,13.10
2023-04-27T16:40:06.095Z,13.04
2023-04-27T16:42:33.397Z,12.86
2023-04-27T16:45:02.169Z,12.75
2023-04-27T16:47:31.289Z,13.16
2023-04-27T16:49:58.526Z,13.25
2023-04-27T16:52:26.124Z,13.09
2023-04-27T16:54:53.361Z,12.99
2023-04-27T16:57:20.502Z,13.28
2023-04-27T16:59:47.654Z,13.01
2023-04-27T17:02:24.378Z,12.81
2023-04-27T17:04:54.501Z,12.85
2023-04-27T17:07:21.699Z,12.81
2023-04-27T17:09:48.870Z,13.01
2023-04-27T17:12:16.690Z,12.97
2023-04-27T17:14:43.831Z,12.91
2023-04-27T17:17:12.208Z,12.74
2023-04-27T17:19:39.473Z,12.76
2023-04-27T17:22:08.505Z,12.48
2023-04-27T17:24:35.645Z,12.48
2023-04-27T17:27:04.191Z,12.37
2023-04-27T17:29:31.910Z,12.56
2023-04-27T17:31:59.234Z,12.31
2023-04-27T17:34:26.385Z,12.27
2023-04-27T17:36:53.650Z,12.37
2023-04-27T17:39:22.569Z,12.32
2023-04-27T17:41:49.749Z,12.41
2023-04-27T17:44:17.145Z,12.47
2023-04-27T17:46:50.309Z,12.29
2023-04-27T17:49:18.965Z,12.14
2023-04-27T17:51:47.365Z,12.37
2023-04-27T17:54:14.535Z,12.42
2023-04-27T17:56:42.715Z,12.42
2023-04-27T17:59:09.964Z,12.23
2023-04-27T18:01:37.189Z,12.20
2023-04-27T18:04:07.037Z,12.25
2023-04-27T18:06:34.475Z,12.24
2023-04-27T18:09:02.629Z,12.11
2023-04-27T18:11:29.860Z,12.03
2023-04-27T18:13:58.138Z,12.06
2023-04-27T18:16:25.449Z,12.03
2023-04-27T18:18:52.722Z,12.05
2023-04-27T18:21:19.879Z,12.07
2023-04-27T18:23:47.178Z,12.05
2023-04-27T18:26:14.413Z,11.83
2023-04-27T18:28:41.992Z,11.93
2023-04-27T18:31:17.302Z,11.64
2023-04-27T18:33:45.607Z,11.68
2023-04-27T18:36:13.088Z,11.59
2023-04-27T18:38:40.529Z,11.46
2023-04-27T18:41:07.980Z,11.69
2023-04-27T18:43:38.382Z,11.82
2023-04-27T18:46:06.040Z,11.78
2023-04-27T18:48:33.242Z,11.62
2023-04-27T18:51:00.387Z,11.47
2023-04-27T18:53:28.125Z,11.39
2023-04-27T18:55:55.692Z,11.60
2023-04-27T18:58:23.453Z,11.37
2023-04-27T19:00:50.713Z,11.52
2023-04-27T19:03:18.145Z,11.24
2023-04-27T19:05:45.585Z,11.33
2023-04-27T19:08:13.001Z,10.94
2023-04-27T19:10:41.805Z,11.37
2023-04-27T19:13:09.230Z,11.12
2023-04-27T19:15:37.367Z,11.25
2023-04-27T19:18:10.670Z,11.13
2023-04-27T19:20:39.547Z,11.16
2023-04-27T19:23:09.165Z,11.06
2023-04-27T19:25:36.675Z,11.22
2023-04-27T19:28:04.857Z,11.12
2023-04-27T19:30:32.262Z,11.12
2023-04-27T19:32:59.616Z,11.08
2023-04-27T19:35:27.463Z,11.00
2023-04-27T19:37:54.688Z,10.78
2023-04-27T19:40:24.386Z,9.91
2023-04-27T19:42:51.648Z,10.26
2023-04-27T19:45:19.001Z,10.15
2023-04-27T19:47:46.939Z,10.33
2023-04-27T19:50:15.936Z,10.41
2023-04-27T19:52:43.600Z,10.05
2023-04-27T19:55:10.837Z,10.06
2023-04-27T19:57:38.000Z,10.37
2023-04-27T20:00:10.626Z,10.26
2023-04-27T20:02:38.738Z,10.58
2023-04-27T20:05:06.932Z,10.06
2023-04-27T20:07:34.231Z,10.32
2023-04-27T20:10:02.788Z,10.32
2023-04-27T20:12:51.331Z,10.35
2023-04-27T20:15:17.207Z,10.16
2023-04-27T20:17:44.406Z,10.11
2023-04-27T20:20:12.032Z,10.06
2023-04-27T20:22:39.392Z,10.16
2023-04-27T20:25:07.964Z,9.98
2023-04-27T20:27:35.741Z,10.02
2023-04-27T20:30:03.812Z,10.37
2023-04-27T20:32:31.101Z,10.05
2023-04-27T20:34:59.671Z,10.17
2023-04-27T20:37:28.049Z,9.89
2023-04-27T20:39:55.775Z,10.12
2023-04-27T20:42:22.977Z,10.09
2023-04-27T20:44:51.154Z,10.10
2023-04-27T20:47:18.433Z,9.93
2023-04-27T20:49:45.644Z,10.11
2023-04-27T20:52:12.892Z,9.99
2023-04-27T20:54:40.673Z,10.11
2023-04-27T20:57:13.264Z,10.25
2023-04-27T20:59:41.546Z,10.05
2023-04-27T21:02:08.790Z,9.87
2023-04-27T21:04:36.240Z,9.73
2023-04-27T21:07:03.582Z,9.40
2023-04-27T21:09:31.347Z,9.39
2023-04-27T21:11:58.551Z,9.48
2023-04-27T21:14:25.691Z,9.74
2023-04-27T21:16:52.904Z,9.85
2023-04-27T21:19:20.540Z,9.66
2023-04-27T21:21:47.752Z,9.68
2023-04-27T21:24:14.978Z,9.46
2023-04-27T21:26:42.318Z,9.61
2023-04-27T21:29:09.586Z,9.36
2023-04-27T21:31:36.959Z,9.11
2023-04-27T21:34:04.289Z,9.23
2023-04-27T21:36:33.128Z,8.74
2023-04-27T21:39:00.332Z,8.80
2023-04-27T21:41:27.552Z,8.20
2023-04-27T21:43:54.731Z,8.16
2023-04-27T21:46:24.097Z,8.84
2023-04-27T21:48:51.428Z,8.52
2023-04-27T21:51:19.061Z,8.47
2023-04-27T21:53:46.297Z,8.11
2023-04-27T21:56:13.566Z,8.11
2023-04-27T21:58:40.812Z,8.01
2023-04-27T22:01:08.025Z,8.12
2023-04-27T22:03:35.396Z,8.43
2023-04-27T22:06:02.718Z,8.25
2023-04-27T22:08:29.941Z,8.20
2023-04-27T22:10:57.180Z,8.38
2023-04-27T22:13:24.325Z,8.24
2023-04-27T22:15:51.536Z,8.38
2023-04-27T22:18:18.781Z,8.15
2023-04-27T22:20:46.106Z,8.17
2023-04-27T22:23:13.403Z,8.19
2023-04-27T22:25:42.768Z,7.85
2023-04-27T22:28:11.012Z,7.99
2023-04-27T22:30:40.782Z,7.88
2023-04-27T22:33:09.183Z,7.58
2023-04-27T22:35:37.196Z,8.05
2023-04-27T22:38:04.809Z,7.65
2023-04-27T22:40:31.965Z,7.63
2023-04-27T22:42:59.109Z,7.20
2023-04-27T22:45:26.324Z,7.49
2023-04-27T22:47:53.761Z,7.50
2023-04-27T22:50:21.020Z,7.69
2023-04-27T22:52:48.265Z,7.51
2023-04-27T22:55:16.083Z,7.55
2023-04-27T22:57:43.924Z,7.41
2023-04-27T23:00:12.299Z,7.27
2023-04-27T23:02:40.489Z,7.13
2023-04-27T23:05:10.581Z,7.26
2023-04-27T23:07:40.884Z,7.10
2023-04-27T23:10:08.670Z,7.27
2023-04-27T23:12:37.725Z,7.12
2023-04-27T23:15:05.334Z,7.16
2023-04-27T23:17:32.679Z,6.90
2023-04-27T23:20:02.082Z,6.83
2023-04-27T23:22:29.474Z,7.14
2023-04-27T23:24:56.637Z,6.97
2023-04-27T23:27:24.759Z,6.91
2023-04-27T23:29:52.736Z,7.11
2023-04-27T23:32:21.261Z,6.87
2023-04-27T23:34:48.472Z,6.78
2023-04-27T23:37:15.631Z,6.69
2023-04-27T23:39:43.502Z,7.02
2023-04-27T23:42:10.793Z,6.68
2023-04-27T23:44:38.527Z,6.53
2023-04-27T23:47:06.216Z,6.39
2023-04-27T23:49:33.357Z,6.36
2023-04-27T23:52:00.535Z,6.52
2023-04-27T23:54:32.064Z,6.49
2023-04-27T23:56:59.286Z,6.55
2023-04-27T23:59:26.460Z,6.36
